METAR Data
IDs: Format: Raw Decoded Include TAF

Data at: 0933 UTC 20 Sep 2019

METAR for:KEDC (Austin/Executive Arp, TX, US)
Text:KEDC 200915Z AUTO 16008KT 10SM OVC009 26/24 A2992 RMK AO2
Temperature: 26.0°C ( 79°F)
Dewpoint: 24.0°C ( 75°F) [RH = 89%]
Pressure (altimeter):29.92 inches Hg (1013.3 mb)
Winds:from the SSE (160 degrees) at 9 MPH (8 knots; 4.1 m/s)
Visibility:10 or more sm (16+ km)
Ceiling:900 feet AGL
Clouds: overcast cloud deck at 900 feet AGL
QC Flag:automated observation with no human augmentation